createdAt,value
2023-02-14T00:00:10.717Z,103208.25
2023-02-14T00:02:38.790Z,103195.19
2023-02-14T00:05:07.253Z,103203.72
2023-02-14T00:07:36.443Z,103199.72
2023-02-14T00:10:04.345Z,103204.56
2023-02-14T00:12:32.201Z,103202.72
2023-02-14T00:15:31.876Z,103194.31
2023-02-14T00:18:00.513Z,103191.03
2023-02-14T00:20:29.151Z,103207.09
2023-02-14T00:22:59.828Z,103197.31
2023-02-14T00:25:27.702Z,103196.38
2023-02-14T00:27:55.687Z,103209.78
2023-02-14T00:30:23.883Z,103206.81
2023-02-14T00:32:51.730Z,103204.06
2023-02-14T00:35:19.867Z,103196.84
2023-02-14T00:37:47.889Z,103195.69
2023-02-14T00:40:17.242Z,103198.53
2023-02-14T00:42:45.098Z,103184.84
2023-02-14T00:45:12.979Z,103191.63
2023-02-14T00:47:40.995Z,103195.13
2023-02-14T00:50:09.746Z,103187.38
2023-02-14T00:52:37.602Z,103197.63
2023-02-14T00:55:05.778Z,103203.59
2023-02-14T00:57:35.179Z,103200.72
2023-02-14T01:00:07.155Z,103193.81
2023-02-14T01:02:35.082Z,103185.94
2023-02-14T01:05:03.112Z,103188.16
2023-02-14T01:07:30.966Z,103180.13
2023-02-14T01:09:58.852Z,103193.78
2023-02-14T01:12:26.750Z,103185.97
2023-02-14T01:14:56.694Z,103180.16
2023-02-14T01:17:24.534Z,103175.09
2023-02-14T01:19:53.165Z,103175.66
2023-02-14T01:22:21.164Z,103175.22
2023-02-14T01:24:49.210Z,103175.78
2023-02-14T01:27:17.103Z,103175.44
2023-02-14T01:29:44.980Z,103169.25
2023-02-14T01:32:14.406Z,103167.44
2023-02-14T01:34:42.425Z,103167.50
2023-02-14T01:37:10.341Z,103167.06
2023-02-14T01:39:38.227Z,103165.41
2023-02-14T01:42:06.662Z,103157.91
2023-02-14T01:44:56.624Z,103157.50
2023-02-14T01:47:28.159Z,103152.69
2023-02-14T01:50:00.478Z,103160.84
2023-02-14T01:52:31.849Z,103156.66
2023-02-14T01:55:05.780Z,103153.25
2023-02-14T01:57:37.865Z,103150.03
2023-02-14T02:00:25.297Z,103149.22
2023-02-14T02:02:54.872Z,103147.63
2023-02-14T02:05:23.835Z,103144.25
2023-02-14T02:07:52.453Z,103151.38
2023-02-14T02:10:21.417Z,103144.84
2023-02-14T02:12:52.594Z,103152.09
2023-02-14T02:15:20.860Z,103155.28
2023-02-14T02:17:57.332Z,103149.09
2023-02-14T02:20:54.910Z,103157.84
2023-02-14T02:23:50.218Z,103157.63
2023-02-14T02:27:02.855Z,103164.53
2023-02-14T02:30:05.386Z,103153.31
2023-02-14T02:32:59.954Z,103160.50
2023-02-14T02:35:45.081Z,103153.66
2023-02-14T02:38:22.496Z,103151.63
2023-02-14T02:40:57.870Z,103157.09
2023-02-14T02:43:38.107Z,103152.16
2023-02-14T02:46:26.270Z,103152.66
2023-02-14T02:48:58.221Z,103153.28
2023-02-14T02:51:50.890Z,103163.00
2023-02-14T02:54:21.798Z,103155.34
2023-02-14T02:56:53.481Z,103153.44
2023-02-14T02:59:24.355Z,103151.16
2023-02-14T03:01:58.590Z,103153.09
2023-02-14T03:04:44.941Z,103152.53
2023-02-14T03:07:32.018Z,103153.97
2023-02-14T03:10:01.415Z,103153.91
2023-02-14T03:13:21.398Z,103149.13
2023-02-14T03:15:55.559Z,103151.19
2023-02-14T03:18:41.178Z,103151.13
2023-02-14T03:21:18.522Z,103144.78
2023-02-14T03:23:55.642Z,103150.44
2023-02-14T03:26:28.449Z,103156.09
2023-02-14T03:29:01.278Z,103150.22
2023-02-14T03:31:32.987Z,103149.03
2023-02-14T03:34:10.355Z,103140.69
2023-02-14T03:36:42.263Z,103141.59
2023-02-14T03:39:15.331Z,103146.09
2023-02-14T03:41:47.602Z,103148.38
2023-02-14T03:44:19.597Z,103140.47
2023-02-14T03:46:51.196Z,103141.41
2023-02-14T03:49:21.251Z,103145.97
2023-02-14T03:51:50.417Z,103149.56
2023-02-14T03:54:21.917Z,103151.25
2023-02-14T03:56:51.629Z,103145.59
2023-02-14T03:59:22.042Z,103143.50
2023-02-14T04:01:55.936Z,103135.09
2023-02-14T04:04:26.350Z,103137.09
2023-02-14T04:06:54.214Z,103133.31
2023-02-14T04:09:23.388Z,103136.31
2023-02-14T04:11:51.386Z,103140.84
2023-02-14T04:14:19.265Z,103139.59
2023-02-14T04:17:04.659Z,103137.00
2023-02-14T04:19:32.547Z,103132.56
2023-02-14T04:22:00.466Z,103137.84
2023-02-14T04:24:29.847Z,103136.09
2023-02-14T04:27:11.096Z,103135.72
2023-02-14T04:29:39.830Z,103139.75
2023-02-14T04:32:08.878Z,103136.31
2023-02-14T04:34:37.474Z,103136.13
2023-02-14T04:37:05.489Z,103137.06
2023-02-14T04:39:35.452Z,103124.09
2023-02-14T04:42:03.580Z,103126.09
2023-02-14T04:44:33.937Z,103134.88
2023-02-14T04:47:02.406Z,103138.31
2023-02-14T04:49:30.355Z,103125.44
2023-02-14T04:51:58.415Z,103133.50
2023-02-14T04:54:26.624Z,103124.78
2023-02-14T04:56:55.832Z,103122.28
2023-02-14T04:59:25.060Z,103123.88
2023-02-14T05:01:53.289Z,103114.13
2023-02-14T05:04:21.258Z,103122.06
2023-02-14T05:06:49.267Z,103116.09
2023-02-14T05:09:17.156Z,103109.84
2023-02-14T05:11:44.961Z,103118.16
2023-02-14T05:14:14.883Z,103112.44
2023-02-14T05:16:42.850Z,103118.44
2023-02-14T05:19:10.798Z,103113.53
2023-02-14T05:21:38.657Z,103104.94
2023-02-14T05:24:06.970Z,103110.91
2023-02-14T05:26:34.801Z,103113.50
2023-02-14T05:29:02.772Z,103105.50
2023-02-14T05:31:32.132Z,103107.06
2023-02-14T05:34:00.088Z,103102.94
2023-02-14T05:36:27.992Z,103103.41
2023-02-14T05:38:55.869Z,103097.06
2023-02-14T05:41:23.758Z,103100.56
2023-02-14T05:43:51.695Z,103106.16
2023-02-14T05:46:19.655Z,103106.75
2023-02-14T05:48:48.996Z,103103.72
2023-02-14T05:51:16.842Z,103101.06
2023-02-14T05:53:44.718Z,103107.81
2023-02-14T05:56:12.671Z,103099.25
2023-02-14T05:58:40.548Z,103101.41
2023-02-14T06:01:08.409Z,103100.03
2023-02-14T06:03:36.288Z,103096.19
2023-02-14T06:06:05.862Z,103106.63
2023-02-14T06:08:33.769Z,103098.56
2023-02-14T06:11:01.862Z,103105.88
2023-02-14T06:13:29.807Z,103109.16
2023-02-14T06:15:57.700Z,103118.53
2023-02-14T06:18:27.986Z,103106.31
2023-02-14T06:20:56.248Z,103109.84
2023-02-14T06:23:26.055Z,103117.28
2023-02-14T06:25:53.931Z,103109.75
2023-02-14T06:28:21.814Z,103112.13
2023-02-14T06:30:49.769Z,103115.53
2023-02-14T06:33:17.777Z,103118.28
2023-02-14T06:35:45.603Z,103117.94
2023-02-14T06:38:13.461Z,103110.84
2023-02-14T06:40:42.642Z,103116.63
2023-02-14T06:43:10.452Z,103121.34
2023-02-14T06:45:38.272Z,103114.44
2023-02-14T06:48:07.487Z,103107.84
2023-02-14T06:50:37.049Z,103103.69
2023-02-14T06:53:06.155Z,103102.63
2023-02-14T06:55:34.063Z,103113.50
2023-02-14T06:58:03.280Z,103117.84
2023-02-14T07:00:34.179Z,103116.47
2023-02-14T07:03:02.151Z,103106.31
2023-02-14T07:05:30.061Z,103105.53
2023-02-14T07:07:57.881Z,103104.78
2023-02-14T07:10:25.826Z,103109.66
2023-02-14T07:12:53.834Z,103114.09
2023-02-14T07:15:23.176Z,103114.53
2023-02-14T07:17:51.127Z,103107.66
2023-02-14T07:20:19.462Z,103100.50
2023-02-14T07:22:47.515Z,103112.66
2023-02-14T07:25:15.582Z,103101.22
2023-02-14T07:27:43.595Z,103103.88
2023-02-14T07:30:12.550Z,103108.50
2023-02-14T07:32:42.353Z,103117.06
2023-02-14T07:35:10.623Z,103108.09
2023-02-14T07:37:38.618Z,103115.38
2023-02-14T07:40:14.308Z,103111.53
2023-02-14T07:42:43.273Z,103111.28
2023-02-14T07:45:27.119Z,103110.22
2023-02-14T07:47:58.994Z,103108.78
2023-02-14T07:50:26.867Z,103102.63
2023-02-14T07:52:54.684Z,103106.81
2023-02-14T07:55:25.027Z,103099.59
2023-02-14T07:57:53.926Z,103104.44
2023-02-14T08:00:22.778Z,103101.03
2023-02-14T08:02:50.644Z,103096.84
2023-02-14T08:05:20.153Z,103105.41
2023-02-14T08:07:48.069Z,103105.06
2023-02-14T08:10:16.116Z,103108.75
2023-02-14T08:13:02.194Z,103112.25
2023-02-14T08:15:49.391Z,103123.63
2023-02-14T08:18:18.624Z,103116.47
2023-02-14T08:20:49.854Z,103122.50
2023-02-14T08:23:18.398Z,103121.25
2023-02-14T08:25:46.718Z,103119.50
2023-02-14T08:28:14.988Z,103124.97
2023-02-14T08:30:43.178Z,103129.34
2023-02-14T08:33:11.161Z,103125.09
2023-02-14T08:35:39.547Z,103128.38
2023-02-14T08:38:09.214Z,103133.81
2023-02-14T08:40:37.475Z,103132.75
2023-02-14T08:43:05.584Z,103130.41
2023-02-14T08:45:33.483Z,103136.88
2023-02-14T08:48:03.036Z,103141.41
2023-02-14T08:50:30.958Z,103141.97
2023-02-14T08:52:58.854Z,103141.44
2023-02-14T08:55:28.612Z,103132.59
2023-02-14T08:57:57.863Z,103135.56
2023-02-14T09:00:25.864Z,103138.25
2023-02-14T09:02:54.001Z,103138.78
2023-02-14T09:05:23.289Z,103137.69
2023-02-14T09:07:51.388Z,103138.09
2023-02-14T09:10:19.790Z,103147.28
2023-02-14T09:12:49.040Z,103143.88
2023-02-14T09:15:17.057Z,103147.03
2023-02-14T09:17:45.111Z,103138.75
2023-02-14T09:20:14.909Z,103132.88
2023-02-14T09:22:43.515Z,103136.47
2023-02-14T09:25:11.790Z,103136.16
2023-02-14T09:27:40.086Z,103138.03
2023-02-14T09:30:10.894Z,103138.63
2023-02-14T09:32:38.777Z,103144.91
2023-02-14T09:35:07.484Z,103138.78
2023-02-14T09:37:52.619Z,103143.19
2023-02-14T09:40:21.088Z,103137.00
2023-02-14T09:42:54.704Z,103136.31
2023-02-14T09:45:27.047Z,103140.91
2023-02-14T09:47:58.617Z,103144.53
2023-02-14T09:50:29.862Z,103145.78
2023-02-14T09:53:00.162Z,103144.28
2023-02-14T09:55:32.165Z,103148.47
2023-02-14T09:58:08.158Z,103150.31
2023-02-14T10:00:39.642Z,103145.63
2023-02-14T10:03:19.376Z,103153.63
2023-02-14T10:05:50.319Z,103146.91
2023-02-14T10:08:30.579Z,103147.66
2023-02-14T10:11:03.903Z,103148.41
2023-02-14T10:13:36.277Z,103142.63
2023-02-14T10:16:10.856Z,103140.91
2023-02-14T10:18:42.118Z,103136.03
2023-02-14T10:21:15.590Z,103143.00
2023-02-14T10:23:47.014Z,103142.34
2023-02-14T10:26:19.025Z,103134.94
2023-02-14T10:28:49.144Z,103141.53
2023-02-14T10:31:22.447Z,103127.97
2023-02-14T10:33:57.665Z,103136.53
2023-02-14T10:36:40.242Z,103129.84
2023-02-14T10:39:18.101Z,103129.19
2023-02-14T10:41:50.697Z,103131.81
2023-02-14T10:44:31.684Z,103120.97
2023-02-14T10:47:06.014Z,103124.44
2023-02-14T10:49:41.630Z,103126.22
2023-02-14T10:52:17.941Z,103126.22
2023-02-14T10:54:47.510Z,103125.44
2023-02-14T10:57:17.258Z,103124.31
2023-02-14T10:59:51.554Z,103120.97
2023-02-14T11:02:24.890Z,103124.44
2023-02-14T11:04:53.540Z,103124.56
2023-02-14T11:07:23.174Z,103125.94
2023-02-14T11:09:51.076Z,103128.28
2023-02-14T11:12:39.712Z,103115.88
2023-02-14T11:15:22.240Z,103111.56
2023-02-14T11:17:51.999Z,103115.81
2023-02-14T11:20:26.638Z,103113.22
2023-02-14T11:22:54.703Z,103115.88
2023-02-14T11:25:24.778Z,103111.44
2023-02-14T11:27:57.657Z,103111.31
2023-02-14T11:30:29.422Z,103106.09
2023-02-14T11:32:58.859Z,103106.72
2023-02-14T11:35:34.334Z,103106.16
2023-02-14T11:38:04.005Z,103101.03
2023-02-14T11:40:33.696Z,103108.00
2023-02-14T11:43:18.583Z,103108.69
2023-02-14T11:45:48.843Z,103099.13
2023-02-14T11:48:36.520Z,103100.13
2023-02-14T11:51:09.136Z,103103.84
2023-02-14T11:53:44.803Z,103097.44
2023-02-14T11:56:13.311Z,103101.94
2023-02-14T11:58:46.199Z,103092.41
2023-02-14T12:01:24.114Z,103090.16
2023-02-14T12:03:54.090Z,103090.28
2023-02-14T12:06:25.128Z,103085.91
2023-02-14T12:08:53.221Z,103082.84
2023-02-14T12:11:22.905Z,103085.91
2023-02-14T12:13:54.846Z,103068.72
2023-02-14T12:16:27.472Z,103070.28
2023-02-14T12:19:01.067Z,103068.41
2023-02-14T12:21:44.064Z,103063.22
2023-02-14T12:24:20.165Z,103065.97
2023-02-14T12:26:51.130Z,103057.66
2023-02-14T12:29:22.138Z,103050.41
2023-02-14T12:31:50.962Z,103049.56
2023-02-14T12:34:22.789Z,103044.72
2023-02-14T12:37:08.891Z,103026.06
2023-02-14T12:39:39.262Z,103035.97
2023-02-14T12:42:17.390Z,103020.84
2023-02-14T12:44:53.129Z,103025.97
2023-02-14T12:47:23.725Z,103021.50
2023-02-14T12:50:11.045Z,103013.97
2023-02-14T12:52:49.306Z,103028.81
2023-02-14T12:55:30.857Z,103017.47
2023-02-14T12:58:02.776Z,103020.25
2023-02-14T13:00:37.386Z,103016.06
2023-02-14T13:03:28.922Z,103006.09
2023-02-14T13:06:04.195Z,103005.06
2023-02-14T13:08:46.335Z,103006.81
2023-02-14T13:11:22.661Z,103005.09
2023-02-14T13:13:55.947Z,103009.25
2023-02-14T13:16:28.283Z,103001.28
2023-02-14T13:19:01.285Z,103000.94
2023-02-14T13:21:34.215Z,102998.19
2023-02-14T13:24:16.552Z,103001.00
2023-02-14T13:26:46.302Z,102991.09
2023-02-14T13:29:16.450Z,102991.22
2023-02-14T13:31:44.483Z,102990.13
2023-02-14T13:34:21.212Z,102990.19
2023-02-14T13:36:50.809Z,102994.88
2023-02-14T13:39:26.425Z,102982.56
2023-02-14T13:41:54.276Z,102986.94
2023-02-14T13:44:43.230Z,102981.72
2023-02-14T13:47:17.995Z,102983.63
2023-02-14T13:49:51.027Z,102981.00
2023-02-14T13:52:41.778Z,102976.47
2023-02-14T13:55:14.623Z,102984.47
2023-02-14T13:57:42.561Z,102985.28
2023-02-14T14:00:46.749Z,102980.09
2023-02-14T14:03:16.568Z,102978.91
2023-02-14T14:06:03.656Z,102971.16
2023-02-14T14:08:44.779Z,102979.84
2023-02-14T14:11:35.036Z,102977.97
2023-02-14T14:14:04.285Z,102979.69
2023-02-14T14:16:35.006Z,102977.94
2023-02-14T14:19:04.806Z,102979.81
2023-02-14T14:21:33.622Z,102967.56
2023-02-14T14:24:16.258Z,102968.19
2023-02-14T14:26:46.838Z,102969.38
2023-02-14T14:29:19.597Z,102968.75
2023-02-14T14:31:48.036Z,102955.19
2023-02-14T14:34:18.863Z,102968.16
2023-02-14T14:36:46.948Z,102961.59
2023-02-14T14:39:26.850Z,102957.22
2023-02-14T14:41:54.788Z,102955.63
2023-02-14T14:44:22.904Z,102954.72
2023-02-14T14:46:50.838Z,102958.13
2023-02-14T14:49:18.791Z,102957.41
2023-02-14T14:51:46.759Z,102956.56
2023-02-14T14:54:18.539Z,102948.66
2023-02-14T14:56:51.119Z,102954.25
2023-02-14T14:59:26.866Z,102955.72
2023-02-14T15:01:55.307Z,102959.34
2023-02-14T15:04:27.426Z,102950.69
2023-02-14T15:06:56.332Z,102949.13
2023-02-14T15:09:32.052Z,102945.91
2023-02-14T15:12:18.313Z,102941.66
2023-02-14T15:14:50.386Z,102932.97
2023-02-14T15:17:21.197Z,102936.94
2023-02-14T15:19:51.551Z,102943.03
2023-02-14T15:22:21.539Z,102940.16
2023-02-14T15:24:51.873Z,102941.13
2023-02-14T15:27:21.659Z,102932.31
2023-02-14T15:29:57.911Z,102922.28
2023-02-14T15:32:26.345Z,102932.31
2023-02-14T15:34:55.530Z,102926.69
2023-02-14T15:37:24.303Z,102926.31
2023-02-14T15:39:55.892Z,102920.69
2023-02-14T15:42:26.798Z,102913.97
2023-02-14T15:45:17.196Z,102916.13
2023-02-14T15:47:47.085Z,102911.28
2023-02-14T15:50:16.798Z,102907.81
2023-02-14T15:52:45.149Z,102900.78
2023-02-14T15:55:17.412Z,102905.91
2023-02-14T15:57:48.121Z,102896.47
2023-02-14T16:00:19.108Z,102904.03
2023-02-14T16:02:49.151Z,102895.44
2023-02-14T16:05:20.254Z,102890.69
2023-02-14T16:07:58.875Z,102893.72
2023-02-14T16:10:28.693Z,102886.94
2023-02-14T16:12:59.066Z,102892.75
2023-02-14T16:15:28.109Z,102892.44
2023-02-14T16:17:56.108Z,102881.69
2023-02-14T16:20:29.231Z,102892.16
2023-02-14T16:23:15.278Z,102888.53
2023-02-14T16:25:44.538Z,102891.88
2023-02-14T16:28:12.485Z,102888.84
2023-02-14T16:30:41.152Z,102887.97
2023-02-14T16:33:14.691Z,102884.75
2023-02-14T16:35:42.526Z,102893.34
2023-02-14T16:38:16.021Z,102891.31
2023-02-14T16:40:47.349Z,102893.34
2023-02-14T16:43:15.826Z,102890.13
2023-02-14T16:45:43.860Z,102899.44
2023-02-14T16:48:11.767Z,102896.69
2023-02-14T16:50:40.883Z,102893.44
2023-02-14T16:53:14.896Z,102892.91
2023-02-14T16:55:42.846Z,102893.91
2023-02-14T16:58:12.200Z,102896.00
2023-02-14T17:00:40.177Z,102890.88
2023-02-14T17:03:08.161Z,102901.44
2023-02-14T17:05:36.756Z,102892.25
2023-02-14T17:08:05.776Z,102894.16
2023-02-14T17:10:34.569Z,102897.53
2023-02-14T17:13:04.023Z,102904.34
2023-02-14T17:15:33.752Z,102899.25
2023-02-14T17:18:04.938Z,102898.50
2023-02-14T17:20:32.743Z,102891.16
2023-02-14T17:23:00.705Z,102893.22
2023-02-14T17:25:28.695Z,102891.06
2023-02-14T17:27:57.150Z,102884.31
2023-02-14T17:30:25.157Z,102891.81
2023-02-14T17:32:54.543Z,102890.81
2023-02-14T17:35:22.526Z,102888.47
2023-02-14T17:37:50.490Z,102886.09
2023-02-14T17:40:18.442Z,102887.97
2023-02-14T17:42:46.645Z,102893.22
2023-02-14T17:45:15.278Z,102897.69
2023-02-14T17:47:45.108Z,102887.06
2023-02-14T17:50:14.687Z,102888.78
2023-02-14T17:52:42.722Z,102876.22
2023-02-14T17:55:10.803Z,102880.63
2023-02-14T17:57:40.896Z,102881.88
2023-02-14T18:00:11.736Z,102875.66
2023-02-14T18:02:42.693Z,102876.31
2023-02-14T18:05:11.482Z,102873.72
2023-02-14T18:07:40.889Z,102871.81
2023-02-14T18:10:09.215Z,102862.56
2023-02-14T18:12:37.613Z,102868.25
2023-02-14T18:15:05.977Z,102865.09
2023-02-14T18:17:33.816Z,102857.03
2023-02-14T18:20:01.733Z,102854.91
2023-02-14T18:22:29.608Z,102864.69
2023-02-14T18:25:02.288Z,102868.63
2023-02-14T18:27:30.156Z,102855.50
2023-02-14T18:29:58.031Z,102849.28
2023-02-14T18:32:26.000Z,102845.91
2023-02-14T18:34:54.072Z,102858.34
2023-02-14T18:37:22.155Z,102838.28
2023-02-14T18:39:50.009Z,102838.75
2023-02-14T18:42:19.320Z,102836.88
2023-02-14T18:44:47.172Z,102845.38
2023-02-14T18:47:15.039Z,102829.31
2023-02-14T18:49:42.945Z,102832.25
2023-02-14T18:52:10.798Z,102821.09
2023-02-14T18:54:38.804Z,102824.34
2023-02-14T18:57:06.668Z,102829.06
2023-02-14T18:59:35.895Z,102821.69
2023-02-14T19:02:03.764Z,102817.41
2023-02-14T19:04:32.172Z,102814.06
2023-02-14T19:07:00.024Z,102812.31
2023-02-14T19:09:29.451Z,102810.50
2023-02-14T19:11:59.964Z,102813.16
2023-02-14T19:14:27.898Z,102807.53
2023-02-14T19:16:57.140Z,102803.13
2023-02-14T19:19:25.768Z,102810.66
2023-02-14T19:21:53.725Z,102801.13
2023-02-14T19:24:24.177Z,102798.34
2023-02-14T19:26:52.063Z,102805.31
2023-02-14T19:29:21.813Z,102799.66
2023-02-14T19:31:53.048Z,102790.06
2023-02-14T19:34:25.307Z,102790.03
2023-02-14T19:36:54.758Z,102791.56
2023-02-14T19:39:24.389Z,102791.16
2023-02-14T19:41:52.477Z,102799.41
2023-02-14T19:44:20.326Z,102797.69
2023-02-14T19:46:49.011Z,102792.94
2023-02-14T19:49:18.971Z,102786.72
2023-02-14T19:51:49.197Z,102795.81
2023-02-14T19:54:17.120Z,102792.56
2023-02-14T19:56:46.560Z,102795.78
2023-02-14T19:59:19.650Z,102791.78
2023-02-14T20:01:49.252Z,102792.59
2023-02-14T20:04:18.823Z,102801.06
2023-02-14T20:06:48.421Z,102796.34
2023-02-14T20:09:16.845Z,102791.03
2023-02-14T20:11:50.068Z,102792.47
2023-02-14T20:14:18.927Z,102790.91
2023-02-14T20:16:47.850Z,102789.44
2023-02-14T20:19:18.315Z,102790.50
2023-02-14T20:21:48.942Z,102782.47
2023-02-14T20:24:18.375Z,102779.97
2023-02-14T20:26:47.363Z,102779.44
2023-02-14T20:29:16.137Z,102773.41
2023-02-14T20:31:46.487Z,102772.97
2023-02-14T20:34:14.843Z,102767.72
2023-02-14T20:36:43.532Z,102767.09
2023-02-14T20:39:14.284Z,102774.59
2023-02-14T20:41:43.674Z,102766.09
2023-02-14T20:44:12.442Z,102764.22
2023-02-14T20:46:41.191Z,102762.97
2023-02-14T20:49:11.895Z,102762.09
2023-02-14T20:51:40.695Z,102760.75
2023-02-14T20:54:08.765Z,102753.03
2023-02-14T20:56:40.098Z,102755.84
2023-02-14T20:59:08.563Z,102761.69
2023-02-14T21:01:36.909Z,102752.59
2023-02-14T21:04:05.202Z,102749.19
2023-02-14T21:06:35.640Z,102740.50
2023-02-14T21:09:03.929Z,102749.84
2023-02-14T21:11:31.812Z,102748.72
2023-02-14T21:14:02.251Z,102741.69
2023-02-14T21:16:30.696Z,102748.31
2023-02-14T21:19:00.137Z,102743.56
2023-02-14T21:21:32.364Z,102737.81
2023-02-14T21:24:01.425Z,102734.34
2023-02-14T21:26:29.943Z,102733.94
2023-02-14T21:28:58.075Z,102729.06
2023-02-14T21:31:27.506Z,102731.63
2023-02-14T21:33:57.751Z,102736.50
2023-02-14T21:36:26.780Z,102735.00
2023-02-14T21:38:57.961Z,102734.56
2023-02-14T21:41:27.663Z,102724.53
2023-02-14T21:43:56.326Z,102731.75
2023-02-14T21:46:31.142Z,102729.22
2023-02-14T21:49:19.114Z,102731.06
2023-02-14T21:51:47.550Z,102719.09
2023-02-14T21:54:15.874Z,102713.59
2023-02-14T21:56:44.131Z,102701.19
2023-02-14T21:59:12.196Z,102706.44
2023-02-14T22:01:41.399Z,102700.88
2023-02-14T22:04:12.849Z,102711.28
2023-02-14T22:06:42.155Z,102709.94
2023-02-14T22:09:12.252Z,102711.28
2023-02-14T22:11:40.535Z,102706.84
2023-02-14T22:14:08.533Z,102708.63
2023-02-14T22:16:36.852Z,102704.78
2023-02-14T22:19:05.267Z,102707.44
2023-02-14T22:21:34.669Z,102705.47
2023-02-14T22:24:02.826Z,102703.81
2023-02-14T22:26:33.679Z,102702.75
2023-02-14T22:29:03.152Z,102698.78
2023-02-14T22:31:34.319Z,102693.44
2023-02-14T22:34:02.356Z,102687.50
2023-02-14T22:36:30.283Z,102685.28
2023-02-14T22:38:59.512Z,102691.72
2023-02-14T22:41:27.462Z,102679.19
2023-02-14T22:43:55.453Z,102678.66
2023-02-14T22:46:25.070Z,102677.56
2023-02-14T22:48:53.604Z,102681.09
2023-02-14T22:51:23.152Z,102663.53
2023-02-14T22:53:52.199Z,102668.66
2023-02-14T22:56:22.967Z,102667.84
2023-02-14T22:58:54.584Z,102673.22
2023-02-14T23:01:23.567Z,102673.69
2023-02-14T23:03:54.775Z,102659.03
2023-02-14T23:06:23.291Z,102661.09
2023-02-14T23:08:51.347Z,102664.19
2023-02-14T23:11:23.334Z,102662.56
2023-02-14T23:14:10.652Z,102662.19
2023-02-14T23:16:56.167Z,102656.38
2023-02-14T23:19:43.123Z,102655.97
2023-02-14T23:22:13.059Z,102651.72
2023-02-14T23:24:41.294Z,102649.13
2023-02-14T23:27:10.615Z,102657.88
2023-02-14T23:29:38.639Z,102653.94
2023-02-14T23:32:07.677Z,102654.03
2023-02-14T23:34:37.523Z,102652.81
2023-02-14T23:37:05.782Z,102644.19
2023-02-14T23:39:35.778Z,102644.94
2023-02-14T23:42:03.768Z,102643.16
2023-02-14T23:44:33.668Z,102642.13
2023-02-14T23:47:03.117Z,102637.66
2023-02-14T23:49:31.944Z,102639.19
2023-02-14T23:51:59.850Z,102640.28
2023-02-14T23:54:27.767Z,102644.47
2023-02-14T23:56:57.424Z,102644.06
2023-02-14T23:59:25.821Z,102640.69
